Time;durP1;ratioP1;P1;durP2;ratioP2;P2;SDS_P1;SDS_P2;PMS_P1;PMS_P2;Temp;Humidity;BMP_temperature;BMP_pressure;BME280_temperature;BME280_humidity;BME280_pressure;Samples;Min_cycle;Max_cycle;Signal;HPM_P1;HPM_P2
2023/01/18 00:01:44;;;;;;;4.77;3.73;;;;;;;-142.25;100.00;58004.16;5031672;28;20028;-73
2023/01/18 00:04:10;;;;;;;5.60;4.60;;;;;;;-142.25;100.00;58004.16;5035763;28;20064;-74
2023/01/18 00:06:40;;;;;;;4.93;3.57;;;;;;;-142.25;100.00;58004.16;5051255;28;20116;-73
2023/01/18 00:09:06;;;;;;;4.23;3.73;;;;;;;-142.25;100.00;58004.16;5016743;28;20037;-73
2023/01/18 00:11:32;;;;;;;4.33;3.60;;;;;;;-142.25;100.00;58004.16;5035980;28;20076;-73
2023/01/18 00:13:58;;;;;;;5.13;3.33;;;;;;;-142.25;100.00;58004.16;5035798;28;20055;-71
2023/01/18 00:16:24;;;;;;;5.80;4.10;;;;;;;-142.25;100.00;58004.16;5033275;28;20470;-73
2023/01/18 00:18:58;;;;;;;5.00;4.17;;;;;;;-142.25;100.00;58004.16;5046804;28;20049;-73
2023/01/18 00:21:25;;;;;;;5.60;4.57;;;;;;;-142.25;100.00;58004.16;5048054;28;20055;-73
2023/01/18 00:23:53;;;;;;;5.57;4.20;;;;;;;-142.25;100.00;58004.16;5041762;28;20070;-73
2023/01/18 00:26:18;;;;;;;5.10;3.90;;;;;;;-142.25;100.00;58004.16;5026798;28;20063;-73
2023/01/18 00:28:45;;;;;;;5.43;4.33;;;;;;;-142.25;100.00;58004.16;5045797;28;20403;-73
2023/01/18 00:31:15;;;;;;;4.67;3.30;;;;;;;-142.25;100.00;58004.16;5027299;28;20114;-71
2023/01/18 00:33:43;;;;;;;6.10;3.63;;;;;;;-142.25;100.00;58004.16;5043788;28;20058;-73
2023/01/18 00:36:09;;;;;;;4.07;3.67;;;;;;;-142.25;100.00;58004.16;5046333;28;20322;-72
2023/01/18 00:38:35;;;;;;;3.83;3.47;;;;;;;-142.25;100.00;58004.16;5027332;28;20040;-72
2023/01/18 00:41:04;;;;;;;5.13;3.70;;;;;;;-142.25;100.00;58004.16;5032562;28;20051;-73
2023/01/18 00:43:38;;;;;;;5.17;3.90;;;;;;;-142.25;100.00;58004.16;5032568;28;20072;-72
2023/01/18 00:46:08;;;;;;;6.10;4.13;;;;;;;-142.25;100.00;58004.16;5041624;28;20280;-73
2023/01/18 00:48:34;;;;;;;4.23;3.80;;;;;;;-142.25;100.00;58004.16;5043489;28;20513;-73
2023/01/18 00:51:00;;;;;;;4.50;3.53;;;;;;;-142.25;100.00;58004.16;5044868;28;20073;-73
2023/01/18 00:53:26;;;;;;;3.93;3.50;;;;;;;-142.25;100.00;58004.16;5045088;28;20049;-72
2023/01/18 00:55:52;;;;;;;4.70;3.87;;;;;;;-142.25;100.00;58004.16;5046888;28;20103;-73
2023/01/18 00:58:18;;;;;;;4.03;3.63;;;;;;;-142.25;100.00;58004.16;5029399;28;20045;-73
2023/01/18 01:00:43;;;;;;;4.97;3.97;;;;;;;-142.25;100.00;58004.16;5047518;28;20052;-72
2023/01/18 01:03:09;;;;;;;5.27;3.90;;;;;;;-142.25;100.00;58004.16;5046405;28;20045;-73
2023/01/18 01:08:22;;;;;;;4.03;3.23;;;;;;;-142.25;100.00;58004.16;5046333;28;20041;-73
2023/01/18 01:10:50;;;;;;;6.43;4.53;;;;;;;-142.25;100.00;58004.16;5043647;28;20680;-73
2023/01/18 01:27:10;;;;;;;6.40;5.25;;;;;;;-142.25;100.00;58004.16;5049091;28;20118;-71
2023/01/18 01:29:37;;;;;;;6.33;5.00;;;;;;;-142.25;100.00;58004.16;5032349;28;20178;-72
2023/01/18 01:32:03;;;;;;;7.77;5.33;;;;;;;-142.25;100.00;58004.16;5050070;28;20048;-72
2023/01/18 01:34:30;;;;;;;6.33;4.93;;;;;;;-142.25;100.00;58004.16;5018890;28;20044;-73
2023/01/18 01:36:56;;;;;;;7.10;5.00;;;;;;;-142.25;100.00;58004.16;5031511;28;20078;-72
2023/01/18 01:39:23;;;;;;;9.33;6.80;;;;;;;-142.25;100.00;58004.16;5049795;28;20021;-74
2023/01/18 01:41:49;;;;;;;8.07;5.60;;;;;;;-142.25;100.00;58004.16;5032795;28;20037;-72
2023/01/18 01:44:18;;;;;;;8.50;4.97;;;;;;;-142.25;100.00;58004.16;5049863;28;20877;-74
2023/01/18 01:46:54;;;;;;;8.13;5.23;;;;;;;-142.25;100.00;58004.16;5047073;28;20079;-71
2023/01/18 01:49:26;;;;;;;7.50;5.73;;;;;;;-142.25;100.00;58004.16;5048914;28;20044;-72
2023/01/18 01:51:57;;;;;;;8.37;5.23;;;;;;;-142.25;100.00;58004.16;5047911;28;20033;-72
2023/01/18 01:54:46;;;;;;;12.30;8.80;;;;;;;-142.25;100.00;58004.16;5047138;28;20113;-72
2023/01/18 01:57:18;;;;;;;12.73;7.70;;;;;;;-142.25;100.00;58004.16;5030496;28;20071;-73
2023/01/18 02:00:09;;;;;;;8.57;6.67;;;;;;;-142.25;100.00;58004.16;5047412;28;20057;-72
2023/01/18 02:02:39;;;;;;;7.47;5.77;;;;;;;-142.25;100.00;58004.16;5047725;28;20053;-72
2023/01/18 02:05:08;;;;;;;6.80;5.10;;;;;;;-142.25;100.00;58004.16;5026455;28;20634;-72
2023/01/18 02:07:34;;;;;;;8.57;5.50;;;;;;;-142.25;100.00;58004.16;5045038;28;20118;-73
2023/01/18 02:10:01;;;;;;;8.63;5.60;;;;;;;-142.25;100.00;58004.16;5044445;28;20041;-73
2023/01/18 02:12:29;;;;;;;8.80;5.63;;;;;;;-142.25;100.00;58004.16;5044630;28;20087;-73
2023/01/18 02:14:56;;;;;;;8.10;5.30;;;;;;;-142.25;100.00;58004.16;5045635;28;20045;-72
2023/01/18 02:17:31;;;;;;;6.87;5.10;;;;;;;-142.25;100.00;58004.16;5040478;28;20037;-73
2023/01/18 02:20:18;;;;;;;8.73;5.05;;;;;;;-142.25;100.00;58004.16;5046019;28;20503;-73
2023/01/18 02:22:46;;;;;;;7.17;5.87;;;;;;;-142.25;100.00;58004.16;5047097;28;20962;-71
2023/01/18 02:25:27;;;;;;;9.03;6.03;;;;;;;-142.25;100.00;58004.16;5029962;28;20048;-72
2023/01/18 02:28:14;;;;;;;9.27;6.00;;;;;;;-142.25;100.00;58004.16;5046493;28;20037;-71
2023/01/18 02:30:50;;;;;;;8.70;5.90;;;;;;;-142.25;100.00;58004.16;5045594;28;20044;-72
2023/01/18 02:33:35;;;;;;;9.50;5.77;;;;;;;-142.25;100.00;58004.16;5045335;28;20060;-73
2023/01/18 02:36:02;;;;;;;9.93;5.47;;;;;;;-142.25;100.00;58004.16;5042504;28;20407;-74
2023/01/18 02:38:43;;;;;;;8.30;6.30;;;;;;;-142.25;100.00;58004.16;5043666;28;20473;-72
2023/01/18 02:41:20;;;;;;;9.43;6.50;;;;;;;-142.25;100.00;58004.16;5043441;28;20075;-73
2023/01/18 02:46:34;;;;;;;10.50;6.90;;;;;;;-142.25;100.00;58004.16;5044863;28;20124;-72
2023/01/18 02:49:11;;;;;;;8.63;6.63;;;;;;;-142.25;100.00;58004.16;5046701;28;20048;-73
2023/01/18 02:51:38;;;;;;;8.93;6.03;;;;;;;-142.25;100.00;58004.16;5044112;28;20032;-73
2023/01/18 02:54:08;;;;;;;7.57;5.57;;;;;;;-142.25;100.00;58004.16;5043717;28;20045;-73
2023/01/18 02:56:41;;;;;;;11.37;7.93;;;;;;;-142.25;100.00;58004.16;5044516;28;20034;-73
2023/01/18 02:59:12;;;;;;;14.00;9.83;;;;;;;-142.25;100.00;58004.16;5044572;28;20303;-72
2023/01/18 03:02:03;;;;;;;16.25;10.82;;;;;;;-142.25;100.00;58004.16;5043226;28;20043;-72
2023/01/18 03:04:52;;;;;;;12.20;9.20;;;;;;;-142.25;100.00;58004.16;5044654;28;20037;-72
2023/01/18 03:08:05;;;;;;;12.73;8.83;;;;;;;-142.25;100.00;58004.16;5047430;28;20079;-73
2023/01/18 03:10:36;;;;;;;9.23;5.97;;;;;;;-142.25;100.00;58004.16;5018226;28;20139;-74
2023/01/18 03:13:27;;;;;;;9.17;5.47;;;;;;;-142.25;100.00;58004.16;5040829;28;20037;-73
2023/01/18 03:16:02;;;;;;;6.83;6.10;;;;;;;-142.25;100.00;58004.16;5045287;28;20036;-73
2023/01/18 03:19:00;;;;;;;8.07;5.70;;;;;;;-142.25;100.00;58004.16;5041120;28;20056;-72
2023/01/18 03:21:50;;;;;;;7.37;5.30;;;;;;;-142.25;100.00;58004.16;5046452;28;20040;-73
2023/01/18 03:24:18;;;;;;;9.47;6.10;;;;;;;-142.25;100.00;58004.16;5043437;28;20058;-74
2023/01/18 03:26:48;;;;;;;6.73;4.87;;;;;;;-142.25;100.00;58004.16;5032456;28;20052;-73
2023/01/18 03:35:02;;;;;;;6.68;4.95;;;;;;;-142.25;100.00;58004.16;5043336;28;20208;-72
2023/01/18 03:37:36;;;;;;;10.30;7.30;;;;;;;-142.25;100.00;58004.16;5044197;28;20096;-73
2023/01/18 03:40:07;;;;;;;10.13;6.53;;;;;;;-142.25;100.00;58004.16;5034586;28;20122;-72
2023/01/18 03:42:41;;;;;;;10.43;7.33;;;;;;;-142.25;100.00;58004.16;5033308;28;20056;-72
2023/01/18 03:45:22;;;;;;;10.83;7.57;;;;;;;-142.25;100.00;58004.16;5044364;28;20055;-72
2023/01/18 03:47:49;;;;;;;10.50;6.90;;;;;;;-142.25;100.00;58004.16;5039431;28;20518;-65
2023/01/18 03:50:16;;;;;;;10.80;6.97;;;;;;;-142.25;100.00;58004.16;5031733;28;20091;-71
2023/01/18 03:52:45;;;;;;;12.57;7.13;;;;;;;-142.25;100.00;58004.16;5044453;28;20530;-62
2023/01/18 03:55:25;;;;;;;12.17;7.20;;;;;;;-142.25;100.00;58004.16;5042603;28;20037;-68
2023/01/18 03:58:09;;;;;;;13.57;8.00;;;;;;;-142.25;100.00;58004.16;5042664;28;20041;-70
2023/01/18 04:00:36;;;;;;;14.40;8.77;;;;;;;-142.25;100.00;58004.16;5027646;28;20399;-70
2023/01/18 04:03:01;;;;;;;10.93;7.63;;;;;;;-142.25;100.00;58004.16;5041394;28;20040;-70
2023/01/18 04:05:27;;;;;;;12.20;7.73;;;;;;;-142.25;100.00;58004.16;5044092;28;20098;-70
2023/01/18 04:07:53;;;;;;;13.47;7.50;;;;;;;-142.25;100.00;58004.16;5041748;28;20095;-71
2023/01/18 04:10:22;;;;;;;14.60;8.60;;;;;;;-142.25;100.00;58004.16;5042938;28;20052;-71
2023/01/18 04:12:48;;;;;;;11.63;7.50;;;;;;;-142.25;100.00;58004.16;5045179;28;20037;-70
2023/01/18 04:15:14;;;;;;;12.53;7.80;;;;;;;-142.25;100.00;58004.16;5040964;28;20395;-70
2023/01/18 04:17:40;;;;;;;9.97;7.10;;;;;;;-142.25;100.00;58004.16;5042069;28;20104;-70
2023/01/18 04:20:09;;;;;;;12.13;8.17;;;;;;;-142.25;100.00;58004.16;5021577;28;20418;-69
2023/01/18 04:22:36;;;;;;;10.97;7.07;;;;;;;-142.25;100.00;58004.16;5024966;28;20613;-70
2023/01/18 04:25:02;;;;;;;11.20;7.77;;;;;;;-142.25;100.00;58004.16;5022180;28;20111;-70
2023/01/18 04:27:28;;;;;;;11.97;7.93;;;;;;;-142.25;100.00;58004.16;5021079;28;20041;-71
2023/01/18 04:29:54;;;;;;;12.80;7.43;;;;;;;-142.25;100.00;58004.16;5021116;28;20555;-70
2023/01/18 04:32:20;;;;;;;9.67;7.00;;;;;;;-142.25;100.00;58004.16;5021244;28;20045;-70
2023/01/18 04:34:45;;;;;;;11.33;7.47;;;;;;;-142.25;100.00;58004.16;5019007;28;20168;-70
2023/01/18 04:37:11;;;;;;;11.20;7.13;;;;;;;-142.25;100.00;58004.16;5021830;28;20054;-70
2023/01/18 04:39:37;;;;;;;8.67;6.77;;;;;;;-142.25;100.00;58004.16;5025082;28;20045;-70
2023/01/18 04:42:03;;;;;;;13.47;7.80;;;;;;;-142.25;100.00;58004.16;5019592;28;20136;-70
2023/01/18 04:44:29;;;;;;;8.43;6.40;;;;;;;-142.25;100.00;58004.16;5024075;28;20452;-70
2023/01/18 04:46:54;;;;;;;8.30;6.33;;;;;;;-142.25;100.00;58004.16;5022184;28;20099;-70
2023/01/18 04:49:20;;;;;;;10.50;7.97;;;;;;;-142.25;100.00;58004.16;5022658;28;20046;-70
2023/01/18 04:51:46;;;;;;;11.30;7.20;;;;;;;-142.25;100.00;58004.16;5022714;28;20033;-70
2023/01/18 04:54:14;;;;;;;9.83;6.50;;;;;;;-142.25;100.00;58004.16;5019282;28;20252;-70
2023/01/18 04:56:40;;;;;;;11.43;7.07;;;;;;;-142.25;100.00;58004.16;5021881;28;20156;-70
2023/01/18 04:59:05;;;;;;;10.47;7.17;;;;;;;-142.25;100.00;58004.16;5025943;28;20519;-70
2023/01/18 05:01:32;;;;;;;8.50;5.67;;;;;;;-142.25;100.00;58004.16;5024003;28;20064;-70
2023/01/18 05:03:58;;;;;;;10.47;5.97;;;;;;;-142.25;100.00;58004.16;5025260;28;20041;-70
2023/01/18 05:06:24;;;;;;;8.47;6.30;;;;;;;-142.25;100.00;58004.16;5022994;28;20376;-70
2023/01/18 05:08:50;;;;;;;9.63;6.23;;;;;;;-142.25;100.00;58004.16;5023650;28;20061;-70
2023/01/18 05:11:19;;;;;;;10.13;6.47;;;;;;;-142.25;100.00;58004.16;5026716;28;20041;-70
2023/01/18 05:13:45;;;;;;;8.47;5.40;;;;;;;-142.25;100.00;58004.16;5027470;28;20055;-69
2023/01/18 05:16:18;;;;;;;8.77;5.67;;;;;;;-142.25;100.00;58004.16;5026237;28;20395;-72
2023/01/18 05:18:44;;;;;;;11.03;6.60;;;;;;;-142.25;100.00;58004.16;5036227;28;20056;-71
2023/01/18 05:21:11;;;;;;;10.83;7.10;;;;;;;-142.25;100.00;58004.16;5040769;28;20041;-72
2023/01/18 05:23:39;;;;;;;10.57;6.00;;;;;;;-142.25;100.00;58004.16;5046834;28;20049;-70
2023/01/18 05:26:12;;;;;;;12.70;7.60;;;;;;;-142.25;100.00;58004.16;5034010;28;20566;-70
2023/01/18 05:28:41;;;;;;;14.80;7.87;;;;;;;-142.25;100.00;58004.16;5029278;28;20045;-71
2023/01/18 05:31:08;;;;;;;13.67;7.60;;;;;;;-142.25;100.00;58004.16;5045856;28;20037;-71
2023/01/18 05:33:33;;;;;;;13.43;8.73;;;;;;;-142.25;100.00;58004.16;5049724;28;20050;-70
2023/01/18 05:35:59;;;;;;;12.33;7.63;;;;;;;-142.25;100.00;58004.16;5032149;28;20051;-71
2023/01/18 05:38:25;;;;;;;11.27;7.10;;;;;;;-142.25;100.00;58004.16;5046999;28;20074;-70
2023/01/18 05:40:53;;;;;;;9.70;6.10;;;;;;;-142.25;100.00;58004.16;5034568;28;20045;-70
2023/01/18 05:43:20;;;;;;;9.47;6.23;;;;;;;-142.25;100.00;58004.16;5046038;28;20488;-70
2023/01/18 05:45:46;;;;;;;12.80;7.33;;;;;;;-142.25;100.00;58004.16;5046494;28;20085;-70
2023/01/18 05:48:11;;;;;;;12.00;7.53;;;;;;;-142.25;100.00;58004.16;5043936;28;20548;-70
2023/01/18 05:50:42;;;;;;;13.93;8.83;;;;;;;-142.25;100.00;58004.16;5029133;28;20045;-71
2023/01/18 05:53:14;;;;;;;19.57;12.13;;;;;;;-142.25;100.00;58004.16;5044253;28;20045;-71
2023/01/18 05:55:40;;;;;;;16.67;10.03;;;;;;;-142.25;100.00;58004.16;5044445;28;20548;-71
2023/01/18 05:58:06;;;;;;;12.20;7.30;;;;;;;-142.25;100.00;58004.16;5044231;28;20589;-70
2023/01/18 06:00:33;;;;;;;11.10;7.53;;;;;;;-142.25;100.00;58004.16;5045860;28;20037;-71
2023/01/18 06:03:00;;;;;;;14.20;8.27;;;;;;;-142.25;100.00;58004.16;5031062;28;20037;-70
2023/01/18 06:05:27;;;;;;;10.93;7.13;;;;;;;-142.25;100.00;58004.16;5044378;28;20037;-69
2023/01/18 06:07:52;;;;;;;14.77;8.70;;;;;;;-142.25;100.00;58004.16;5039889;28;20313;-70
2023/01/18 06:10:19;;;;;;;13.83;8.23;;;;;;;-142.25;100.00;58004.16;5041935;28;20343;-65
2023/01/18 06:12:45;;;;;;;14.23;8.77;;;;;;;-142.25;100.00;58004.16;5043175;28;20045;-69
2023/01/18 06:15:11;;;;;;;19.73;11.03;;;;;;;-142.25;100.00;58004.16;5040708;28;20042;-68
2023/01/18 06:17:37;;;;;;;18.33;10.70;;;;;;;-142.25;100.00;58004.16;5038378;28;20080;-69
2023/01/18 06:20:05;;;;;;;18.50;10.23;;;;;;;-142.25;100.00;58004.16;5041394;28;20949;-69
2023/01/18 06:22:31;;;;;;;18.17;9.17;;;;;;;-142.25;100.00;58004.16;5043142;28;20755;-69
2023/01/18 06:24:56;;;;;;;28.93;12.17;;;;;;;-142.25;100.00;58004.16;5037621;28;20053;-69
2023/01/18 06:27:22;;;;;;;33.87;16.23;;;;;;;-142.25;100.00;58004.16;5042913;28;20114;-69
2023/01/18 06:29:47;;;;;;;27.30;12.80;;;;;;;-142.25;100.00;58004.16;5046366;28;20053;-68
2023/01/18 06:32:13;;;;;;;23.47;12.30;;;;;;;-142.25;100.00;58004.16;5043414;28;20049;-68
2023/01/18 06:34:38;;;;;;;19.10;11.00;;;;;;;-142.25;100.00;58004.16;5030726;28;20037;-68
2023/01/18 06:37:04;;;;;;;16.30;9.03;;;;;;;-142.25;100.00;58004.16;5048036;28;20383;-69
2023/01/18 06:39:30;;;;;;;19.53;10.03;;;;;;;-142.25;100.00;58004.16;5043601;28;20048;-69
2023/01/18 06:41:55;;;;;;;18.27;10.73;;;;;;;-142.25;100.00;58004.16;5047059;28;20395;-68
2023/01/18 06:44:21;;;;;;;17.83;9.20;;;;;;;-142.25;100.00;58004.16;5046264;28;20033;-71
2023/01/18 06:46:47;;;;;;;20.27;9.63;;;;;;;-142.25;100.00;58004.16;5046096;28;20037;-70
2023/01/18 06:49:13;;;;;;;18.30;9.80;;;;;;;-142.25;100.00;58004.16;5038915;28;20510;-70
2023/01/18 06:51:39;;;;;;;19.07;10.23;;;;;;;-142.25;100.00;58004.16;5041858;28;20045;-70
2023/01/18 06:54:05;;;;;;;17.77;9.23;;;;;;;-142.25;100.00;58004.16;5041940;28;20137;-70
2023/01/18 06:56:31;;;;;;;16.50;8.60;;;;;;;-142.25;100.00;58004.16;5044073;28;20068;-70
2023/01/18 06:58:57;;;;;;;17.93;9.60;;;;;;;-142.25;100.00;58004.16;5028339;28;20547;-69
2023/01/18 07:01:24;;;;;;;19.17;10.20;;;;;;;-142.25;100.00;58004.16;5042623;28;20049;-70
2023/01/18 07:03:50;;;;;;;17.77;10.13;;;;;;;-142.25;100.00;58004.16;5041688;28;20041;-70
2023/01/18 07:06:17;;;;;;;15.77;9.70;;;;;;;-142.25;100.00;58004.16;5041261;28;20037;-70
2023/01/18 07:08:42;;;;;;;17.30;10.00;;;;;;;-142.25;100.00;58004.16;5042702;28;20073;-70
2023/01/18 07:11:10;;;;;;;15.77;9.47;;;;;;;-142.25;100.00;58004.16;5042482;28;20476;-70
2023/01/18 07:13:39;;;;;;;17.40;10.23;;;;;;;-142.25;100.00;58004.16;5041334;28;20126;-70
2023/01/18 07:16:07;;;;;;;16.80;9.17;;;;;;;-142.25;100.00;58004.16;5044535;28;20052;-70
2023/01/18 07:18:33;;;;;;;15.97;9.10;;;;;;;-142.25;100.00;58004.16;5041018;28;20995;-70
2023/01/18 07:21:07;;;;;;;14.20;8.57;;;;;;;-142.25;100.00;58004.16;5039555;28;20041;-70
2023/01/18 07:23:34;;;;;;;16.03;8.83;;;;;;;-142.25;100.00;58004.16;5042214;28;20033;-70
2023/01/18 07:26:01;;;;;;;15.43;9.47;;;;;;;-142.25;100.00;58004.16;5043090;28;20136;-68
2023/01/18 07:28:27;;;;;;;17.97;9.40;;;;;;;-142.25;100.00;58004.16;5026596;28;20076;-67
2023/01/18 07:30:53;;;;;;;11.80;8.20;;;;;;;-142.25;100.00;58004.16;5042160;28;20047;-68
2023/01/18 07:33:19;;;;;;;13.77;7.60;;;;;;;-142.25;100.00;58004.16;5028693;28;20044;-70
2023/01/18 07:35:44;;;;;;;17.37;8.97;;;;;;;-142.25;100.00;58004.16;5023113;28;20040;-70
2023/01/18 07:38:10;;;;;;;12.27;7.63;;;;;;;-142.25;100.00;58004.16;5040169;28;20045;-69
2023/01/18 07:40:36;;;;;;;13.33;8.47;;;;;;;-142.25;100.00;58004.16;5027711;28;20049;-69
2023/01/18 07:43:02;;;;;;;11.80;7.90;;;;;;;-142.25;100.00;58004.16;5041730;28;20051;-68
2023/01/18 07:45:29;;;;;;;14.90;8.80;;;;;;;-142.25;100.00;58004.16;5039853;28;20333;-69
2023/01/18 07:47:54;;;;;;;13.70;9.30;;;;;;;-142.25;100.00;58004.16;5040834;28;20061;-69
2023/01/18 07:50:21;;;;;;;24.93;12.60;;;;;;;-142.25;100.00;58004.16;5042460;28;20075;-69
2023/01/18 07:52:50;;;;;;;14.50;8.40;;;;;;;-142.25;100.00;58004.16;5041726;28;20131;-69
2023/01/18 07:55:21;;;;;;;24.67;10.83;;;;;;;-142.25;100.00;58004.16;5022625;28;20209;-69
2023/01/18 07:57:47;;;;;;;34.87;12.77;;;;;;;-142.25;100.00;58004.16;5042319;28;20041;-68
2023/01/18 08:00:13;;;;;;;26.70;11.27;;;;;;;-142.25;100.00;58004.16;5039766;28;20163;-69
2023/01/18 08:02:40;;;;;;;26.97;12.47;;;;;;;-142.25;100.00;58004.16;5036738;28;20049;-68
2023/01/18 08:05:09;;;;;;;31.00;11.80;;;;;;;-142.25;100.00;58004.16;5035663;28;20370;-67
2023/01/18 08:07:35;;;;;;;23.03;13.20;;;;;;;-142.25;100.00;58004.16;5024524;28;20039;-68
2023/01/18 08:10:01;;;;;;;29.33;15.90;;;;;;;-142.25;100.00;58004.16;5041085;28;20128;-68
2023/01/18 08:12:28;;;;;;;31.43;13.80;;;;;;;-142.25;100.00;58004.16;5028145;28;20322;-68
2023/01/18 08:14:53;;;;;;;27.30;12.30;;;;;;;-142.25;100.00;58004.16;5041653;28;20515;-68
2023/01/18 08:17:19;;;;;;;15.53;8.33;;;;;;;-142.25;100.00;58004.16;5042975;28;20059;-68
2023/01/18 08:19:45;;;;;;;14.63;7.50;;;;;;;-142.25;100.00;58004.16;5028679;28;20136;-69
2023/01/18 08:22:10;;;;;;;12.60;7.17;;;;;;;-142.25;100.00;58004.16;5041802;28;20040;-72
2023/01/18 08:24:36;;;;;;;11.87;6.90;;;;;;;-142.25;100.00;58004.16;5041850;28;20147;-69
2023/01/18 08:27:01;;;;;;;14.83;7.60;;;;;;;-142.25;100.00;58004.16;5040904;28;20053;-69
2023/01/18 08:29:27;;;;;;;14.43;8.33;;;;;;;-142.25;100.00;58004.16;5039738;28;20404;-69
2023/01/18 08:31:53;;;;;;;15.10;8.80;;;;;;;-142.25;100.00;58004.16;5042633;28;20428;-69
2023/01/18 08:34:18;;;;;;;13.87;8.27;;;;;;;-142.25;100.00;58004.16;5033048;28;20055;-69
2023/01/18 08:36:44;;;;;;;12.93;7.67;;;;;;;-142.25;100.00;58004.16;5043675;28;20128;-72
2023/01/18 08:39:12;;;;;;;11.40;7.07;;;;;;;-142.25;100.00;58004.16;5025643;28;20044;-69
2023/01/18 08:41:37;;;;;;;13.40;8.37;;;;;;;-142.25;100.00;58004.16;5044824;28;20055;-69
2023/01/18 08:44:03;;;;;;;14.93;8.87;;;;;;;-142.25;100.00;58004.16;5044634;28;20041;-68
2023/01/18 08:46:29;;;;;;;14.80;7.97;;;;;;;-142.25;100.00;58004.16;5045114;28;20494;-69
2023/01/18 08:48:56;;;;;;;13.23;8.13;;;;;;;-142.25;100.00;58004.16;5044197;28;20613;-70
2023/01/18 08:51:22;;;;;;;12.23;7.17;;;;;;;-142.25;100.00;58004.16;5037242;28;20040;-68
2023/01/18 08:53:53;;;;;;;10.47;6.57;;;;;;;-142.25;100.00;58004.16;5038416;28;20303;-70
2023/01/18 08:56:19;;;;;;;13.80;8.90;;;;;;;-142.25;100.00;58004.16;5044202;28;20041;-69
2023/01/18 08:58:46;;;;;;;12.73;7.93;;;;;;;-142.25;100.00;58004.16;5045739;28;20132;-69
2023/01/18 09:01:12;;;;;;;11.80;7.10;;;;;;;-142.25;100.00;58004.16;5044599;28;20036;-69
2023/01/18 09:03:41;;;;;;;14.13;8.60;;;;;;;-142.25;100.00;58004.16;5045047;28;20503;-68
2023/01/18 09:06:08;;;;;;;11.73;7.63;;;;;;;-142.25;100.00;58004.16;5043496;28;20088;-70
2023/01/18 09:08:34;;;;;;;14.97;8.13;;;;;;;-142.25;100.00;58004.16;5037916;28;20820;-69
2023/01/18 09:11:04;;;;;;;15.57;7.87;;;;;;;-142.25;100.00;58004.16;5040886;28;20050;-69
2023/01/18 09:13:31;;;;;;;14.43;7.77;;;;;;;-142.25;100.00;58004.16;5038486;28;20333;-67
2023/01/18 09:16:00;;;;;;;14.73;8.10;;;;;;;-142.25;100.00;58004.16;5041040;28;20526;-67
2023/01/18 09:18:28;;;;;;;12.60;6.87;;;;;;;-142.25;100.00;58004.16;5044205;28;20059;-68
2023/01/18 09:20:55;;;;;;;11.63;7.00;;;;;;;-142.25;100.00;58004.16;5032367;28;20049;-69
2023/01/18 09:23:21;;;;;;;12.27;7.33;;;;;;;-142.25;100.00;58004.16;5042749;28;20174;-69
2023/01/18 09:25:48;;;;;;;10.27;6.90;;;;;;;-142.25;100.00;58004.16;5044218;28;20044;-69
2023/01/18 09:28:15;;;;;;;11.57;7.47;;;;;;;-142.25;100.00;58004.16;5042936;28;20043;-67
2023/01/18 09:30:41;;;;;;;14.33;7.93;;;;;;;-142.25;100.00;58004.16;5043781;28;20049;-68
2023/01/18 09:33:07;;;;;;;14.20;9.20;;;;;;;-142.25;100.00;58004.16;5017817;28;20502;-72
2023/01/18 09:35:33;;;;;;;16.60;8.27;;;;;;;-142.25;100.00;58004.16;5042402;28;20040;-69
2023/01/18 09:37:59;;;;;;;12.67;7.87;;;;;;;-142.25;100.00;58004.16;5031604;28;20040;-70
2023/01/18 09:40:42;;;;;;;14.67;8.33;;;;;;;-142.25;100.00;58004.16;5043977;28;20093;-70
2023/01/18 09:43:31;;;;;;;13.13;9.47;;;;;;;-142.25;100.00;58004.16;5037806;28;20077;-70
2023/01/18 09:45:58;;;;;;;15.10;7.90;;;;;;;-142.25;100.00;58004.16;5039535;28;20059;-71
2023/01/18 09:48:29;;;;;;;17.20;8.07;;;;;;;-142.25;100.00;58004.16;5042694;28;20052;-70
2023/01/18 09:51:01;;;;;;;14.00;7.17;;;;;;;-142.25;100.00;58004.16;5043020;28;20156;-70
2023/01/18 09:54:01;;;;;;;11.77;8.03;;;;;;;-142.25;100.00;58004.16;5042561;28;20055;-70
2023/01/18 09:56:36;;;;;;;13.73;8.07;;;;;;;-142.25;100.00;58004.16;5040279;28;20049;-71
2023/01/18 09:59:14;;;;;;;11.95;8.02;;;;;;;-142.25;100.00;58004.16;5025926;28;20482;-70
2023/01/18 10:01:40;;;;;;;10.93;7.50;;;;;;;-142.25;100.00;58004.16;5044253;28;20064;-70
2023/01/18 10:04:28;;;;;;;14.47;8.07;;;;;;;-142.25;100.00;58004.16;5044732;28;20064;-70
2023/01/18 10:07:00;;;;;;;10.77;7.40;;;;;;;-142.25;100.00;58004.16;5042511;28;20545;-72
2023/01/18 10:09:31;;;;;;;13.33;7.83;;;;;;;-142.25;100.00;58004.16;5043392;28;20534;-72
2023/01/18 10:12:05;;;;;;;11.50;7.20;;;;;;;-142.25;100.00;58004.16;5046402;28;20044;-72
2023/01/18 10:14:54;;;;;;;12.35;7.78;;;;;;;-142.25;100.00;58004.16;5047949;28;20140;-72
2023/01/18 10:17:24;;;;;;;10.27;6.93;;;;;;;-142.25;100.00;58004.16;5044629;28;20060;-71
2023/01/18 10:19:50;;;;;;;12.20;7.73;;;;;;;-142.25;100.00;58004.16;5042909;28;20049;-71
2023/01/18 10:22:25;;;;;;;11.90;7.93;;;;;;;-142.25;100.00;58004.16;5045827;28;20056;-73
2023/01/18 10:25:01;;;;;;;12.18;8.02;;;;;;;-142.25;100.00;58004.16;5048023;28;20550;-73
2023/01/18 10:28:00;;;;;;;12.10;8.20;;;;;;;-142.25;100.00;58004.16;5047686;28;20128;-72
2023/01/18 10:30:35;;;;;;;13.03;8.43;;;;;;;-142.25;100.00;58004.16;5001555;28;20131;-72
2023/01/18 10:33:13;;;;;;;10.70;7.55;;;;;;;-142.25;100.00;58004.16;5049363;28;20560;-74
2023/01/18 10:35:43;;;;;;;12.23;8.00;;;;;;;-142.25;100.00;58004.16;5044149;28;20114;-67
2023/01/18 10:38:14;;;;;;;14.80;7.47;;;;;;;-142.25;100.00;58004.16;5038441;28;20719;-68
2023/01/18 10:40:42;;;;;;;14.40;8.27;;;;;;;-142.25;100.00;58004.16;5041208;28;20040;-71
2023/01/18 10:43:15;;;;;;;12.37;8.10;;;;;;;-142.25;100.00;58004.16;5042999;28;20064;-70
2023/01/18 10:45:40;;;;;;;9.87;6.90;;;;;;;-142.25;100.00;58004.16;5045082;28;20037;-70
2023/01/18 10:48:31;;;;;;;9.47;7.33;;;;;;;-142.25;100.00;58004.16;5042853;28;20111;-68
2023/01/18 10:51:04;;;;;;;10.47;6.83;;;;;;;-142.25;100.00;58004.16;5038984;28;20186;-67
2023/01/18 10:53:36;;;;;;;8.57;5.07;;;;;;;-142.25;100.00;58004.16;5038350;28;20128;-68
2023/01/18 10:56:25;;;;;;;11.03;6.93;;;;;;;-142.25;100.00;58004.16;5012842;28;20037;-68
2023/01/18 10:58:53;;;;;;;8.13;5.87;;;;;;;-142.25;100.00;58004.16;5037928;28;20053;-66
2023/01/18 11:01:19;;;;;;;9.27;7.07;;;;;;;-142.25;100.00;58004.16;5040451;28;20071;-66
2023/01/18 11:03:54;;;;;;;13.67;5.73;;;;;;;-142.25;100.00;58004.16;5037254;28;20107;-69
2023/01/18 11:06:20;;;;;;;;;;;;;;;-142.25;100.00;58004.16;5038777;28;20622;-68
2023/01/18 11:08:48;;;;;;;6.73;4.90;;;;;;;-142.25;100.00;58004.16;5040475;28;19921;-68
2023/01/18 11:11:13;;;;;;;6.33;5.73;;;;;;;-142.25;100.00;58004.16;5035420;28;20044;-68
2023/01/18 11:13:40;;;;;;;4.53;3.43;;;;;;;-142.25;100.00;58004.16;5041256;28;20033;-68
2023/01/18 11:16:12;;;;;;;5.43;3.55;;;;;;;-142.25;100.00;58004.16;5042828;28;20045;-68
2023/01/18 11:19:04;;;;;;;8.33;4.00;;;;;;;-142.25;100.00;58004.16;5041017;28;20130;-68
2023/01/18 11:21:54;;;;;;;1.87;1.63;;;;;;;-142.25;100.00;58004.16;5036001;28;20103;-69
2023/01/18 11:24:28;;;;;;;1.40;0.97;;;;;;;-142.25;100.00;58004.16;5008889;28;20071;-67
2023/01/18 11:27:02;;;;;;;1.83;1.00;;;;;;;-142.25;100.00;58004.16;5002933;28;20694;-67
2023/01/18 11:29:34;;;;;;;3.07;0.90;;;;;;;-142.25;100.00;58004.16;5036986;28;20175;-67
2023/01/18 11:32:03;;;;;;;0.60;0.60;;;;;;;-142.25;100.00;58004.16;5039386;28;20357;-68
2023/01/18 11:34:33;;;;;;;1.10;0.80;;;;;;;-142.25;100.00;58004.16;5044139;28;20063;-68
2023/01/18 11:37:00;;;;;;;0.53;0.50;;;;;;;-142.25;100.00;58004.16;5041425;28;20093;-68
2023/01/18 11:39:34;;;;;;;0.97;0.73;;;;;;;-142.25;100.00;58004.16;5039709;28;20033;-67
2023/01/18 11:42:25;;;;;;;0.50;0.50;;;;;;;-142.25;100.00;58004.16;5041865;28;20155;-68